createdAt,value
2022-10-03T00:00:14.505Z,3.40
2022-10-03T00:03:00.959Z,4.15
2022-10-03T00:05:57.652Z,3.17
2022-10-03T00:08:46.646Z,3.50
2022-10-03T00:11:43.629Z,4.13
2022-10-03T00:14:16.490Z,3.53
2022-10-03T00:17:21.382Z,3.42
2022-10-03T00:20:16.200Z,2.90
2022-10-03T00:23:01.635Z,3.72
2022-10-03T00:25:43.504Z,3.40
2022-10-03T00:28:17.624Z,3.42
2022-10-03T00:31:14.949Z,3.53
2022-10-03T00:33:57.174Z,3.95
2022-10-03T00:36:45.065Z,3.15
2022-10-03T00:39:39.527Z,3.20
2022-10-03T00:42:07.237Z,3.22
2022-10-03T00:44:55.847Z,4.05
2022-10-03T00:47:47.460Z,4.75
2022-10-03T00:50:45.542Z,2.90
2022-10-03T00:53:39.306Z,4.68
2022-10-03T00:56:21.784Z,3.35
2022-10-03T01:01:42.907Z,3.05
2022-10-03T01:04:41.880Z,3.30
2022-10-03T01:07:33.214Z,3.60
2022-10-03T01:10:13.046Z,3.67
2022-10-03T01:12:49.029Z,3.85
2022-10-03T01:15:38.970Z,3.80
2022-10-03T01:18:37.752Z,4.15
2022-10-03T01:21:11.464Z,3.97
2022-10-03T01:24:34.453Z,4.13
2022-10-03T01:27:11.379Z,4.07
2022-10-03T01:30:08.732Z,3.90
2022-10-03T01:32:53.032Z,4.35
2022-10-03T01:35:40.383Z,3.20
2022-10-03T01:38:20.851Z,3.13
2022-10-03T01:41:02.226Z,3.17
2022-10-03T01:43:38.494Z,4.10
2022-10-03T01:46:17.545Z,3.53
2022-10-03T01:48:55.478Z,3.17
2022-10-03T01:51:35.047Z,3.92
2022-10-03T01:54:24.716Z,3.70
2022-10-03T01:57:16.459Z,3.22
2022-10-03T01:59:47.492Z,3.60
2022-10-03T02:02:33.028Z,3.88
2022-10-03T02:05:09.776Z,4.28
2022-10-03T02:07:57.299Z,3.75
2022-10-03T02:10:48.764Z,4.05
2022-10-03T02:13:18.547Z,4.00
2022-10-03T02:15:49.152Z,3.90
2022-10-03T02:18:21.741Z,3.42
2022-10-03T02:21:05.426Z,3.47
2022-10-03T02:23:32.456Z,3.55
2022-10-03T02:26:30.472Z,4.18
2022-10-03T02:29:15.962Z,3.95
2022-10-03T02:32:20.488Z,3.83
2022-10-03T02:35:10.410Z,3.53
2022-10-03T02:37:49.421Z,3.40
2022-10-03T02:40:47.548Z,3.40
2022-10-03T02:43:15.262Z,3.70
2022-10-03T02:46:00.191Z,2.88
2022-10-03T02:48:43.123Z,3.78
2022-10-03T02:51:45.848Z,4.07
2022-10-03T02:54:42.275Z,4.47
2022-10-03T02:57:33.981Z,4.05
2022-10-03T03:00:21.616Z,3.67
2022-10-03T03:03:26.778Z,3.30
2022-10-03T03:06:17.986Z,3.03
2022-10-03T03:09:05.009Z,3.42
2022-10-03T03:11:56.427Z,2.47
2022-10-03T03:14:29.517Z,3.90
2022-10-03T03:17:23.404Z,3.55
2022-10-03T03:19:59.332Z,3.42
2022-10-03T03:22:32.341Z,3.47
2022-10-03T03:25:18.282Z,2.95
2022-10-03T03:27:54.263Z,3.20
2022-10-03T03:30:24.976Z,2.78
2022-10-03T03:33:14.881Z,2.78
2022-10-03T03:36:25.784Z,2.85
2022-10-03T03:39:37.700Z,3.05
2022-10-03T03:42:13.539Z,4.13
2022-10-03T03:44:54.315Z,2.80
2022-10-03T03:47:43.271Z,2.90
2022-10-03T03:50:27.618Z,2.88
2022-10-03T03:53:12.368Z,3.35
2022-10-03T03:56:03.749Z,3.20
2022-10-03T03:58:40.207Z,2.30
2022-10-03T04:01:21.146Z,3.38
2022-10-03T04:04:00.281Z,2.97
2022-10-03T04:06:51.442Z,2.53
2022-10-03T04:09:40.415Z,2.85
2022-10-03T04:12:47.241Z,2.95
2022-10-03T04:15:17.499Z,3.40
2022-10-03T04:18:19.835Z,2.83
2022-10-03T04:21:42.170Z,2.78
2022-10-03T04:24:27.712Z,2.90
2022-10-03T04:27:04.109Z,2.97
2022-10-03T04:30:01.688Z,3.40
2022-10-03T04:32:49.924Z,2.47
2022-10-03T04:35:55.437Z,2.42
2022-10-03T04:38:57.840Z,2.78
2022-10-03T04:41:49.745Z,2.42
2022-10-03T04:44:41.239Z,1.80
2022-10-03T04:47:17.162Z,3.60
2022-10-03T04:49:47.250Z,2.95
2022-10-03T04:52:39.569Z,2.65
2022-10-03T04:55:39.209Z,3.03
2022-10-03T04:58:30.370Z,3.15
2022-10-03T05:01:15.488Z,2.92
2022-10-03T05:04:05.138Z,2.50
2022-10-03T05:06:43.252Z,2.72
2022-10-03T05:09:36.432Z,3.67
2022-10-03T05:12:38.552Z,3.13
2022-10-03T05:15:19.156Z,2.85
2022-10-03T05:18:04.904Z,3.22
2022-10-03T05:20:56.326Z,2.65
2022-10-03T05:24:03.421Z,2.50
2022-10-03T05:27:20.280Z,2.75
2022-10-03T05:30:08.995Z,2.28
2022-10-03T05:32:56.686Z,4.60
2022-10-03T05:35:53.598Z,2.92
2022-10-03T05:38:46.020Z,3.72
2022-10-03T05:41:26.797Z,3.65
2022-10-03T05:44:05.135Z,3.20
2022-10-03T05:47:30.010Z,2.92
2022-10-03T05:50:10.963Z,3.10
2022-10-03T05:55:52.371Z,3.08
2022-10-03T05:58:51.566Z,2.70
2022-10-03T06:01:30.580Z,2.65
2022-10-03T06:04:43.847Z,3.00
2022-10-03T06:07:25.545Z,3.17
2022-10-03T06:10:04.522Z,2.35
2022-10-03T06:13:06.460Z,2.60
2022-10-03T06:16:04.344Z,2.57
2022-10-03T06:18:55.077Z,3.05
2022-10-03T06:21:41.942Z,2.55
2022-10-03T06:24:18.313Z,3.00
2022-10-03T06:26:52.513Z,2.40
2022-10-03T06:29:54.875Z,2.92
2022-10-03T06:32:55.449Z,3.10
2022-10-03T06:35:25.708Z,3.10
2022-10-03T06:38:29.588Z,2.55
2022-10-03T06:41:12.164Z,2.50
2022-10-03T06:44:02.673Z,3.28
2022-10-03T06:46:59.595Z,2.72
2022-10-03T06:50:00.218Z,2.30
2022-10-03T06:52:39.132Z,2.97
2022-10-03T06:55:21.449Z,2.63
2022-10-03T06:58:27.288Z,3.30
2022-10-03T07:01:21.916Z,3.55
2022-10-03T07:04:26.432Z,3.65
2022-10-03T07:07:05.815Z,2.63
2022-10-03T07:10:10.329Z,2.78
2022-10-03T07:13:08.605Z,2.72
2022-10-03T07:18:55.651Z,2.75
2022-10-03T07:21:40.666Z,2.00
2022-10-03T07:24:20.064Z,3.17
2022-10-03T07:27:09.205Z,2.63
2022-10-03T07:29:51.363Z,2.42
2022-10-03T07:32:24.395Z,2.72
2022-10-03T07:35:16.585Z,1.98
2022-10-03T07:38:39.107Z,1.92
2022-10-03T07:41:19.883Z,2.35
2022-10-03T07:43:49.955Z,2.60
2022-10-03T07:47:01.864Z,2.67
2022-10-03T07:49:49.650Z,2.38
2022-10-03T07:52:35.055Z,2.22
2022-10-03T07:55:39.658Z,2.78
2022-10-03T07:58:26.409Z,2.22
2022-10-03T08:01:31.147Z,3.15
2022-10-03T08:04:29.152Z,2.75
2022-10-03T08:07:27.087Z,2.58
2022-10-03T08:10:20.727Z,4.10
2022-10-03T08:13:20.007Z,3.30
2022-10-03T08:15:59.552Z,3.00
2022-10-03T08:18:56.754Z,2.75
2022-10-03T08:22:18.632Z,2.47
2022-10-03T08:25:20.189Z,2.80
2022-10-03T08:28:18.450Z,2.97
2022-10-03T08:31:19.503Z,2.35
2022-10-03T08:34:23.400Z,2.90
2022-10-03T08:37:18.240Z,3.10
2022-10-03T08:40:22.557Z,3.10
2022-10-03T08:43:11.071Z,2.92
2022-10-03T08:45:57.343Z,2.78
2022-10-03T08:48:30.457Z,3.42
2022-10-03T08:51:00.482Z,3.85
2022-10-03T08:54:05.200Z,4.03
2022-10-03T08:56:51.023Z,5.32
2022-10-03T08:59:41.692Z,3.85
2022-10-03T09:02:41.881Z,4.40
2022-10-03T09:05:33.429Z,5.43
2022-10-03T09:08:19.704Z,4.13
2022-10-03T09:11:09.247Z,4.25
2022-10-03T09:13:55.374Z,4.00
2022-10-03T09:16:31.571Z,3.67
2022-10-03T09:18:58.683Z,3.78
2022-10-03T09:21:47.774Z,2.80
2022-10-03T09:24:45.368Z,3.30
2022-10-03T09:27:36.357Z,4.38
2022-10-03T09:30:24.014Z,3.03
2022-10-03T09:33:18.948Z,3.13
2022-10-03T09:36:12.344Z,3.63
2022-10-03T09:39:04.015Z,3.20
2022-10-03T09:41:56.281Z,2.85
2022-10-03T09:44:42.032Z,2.55
2022-10-03T09:47:42.753Z,3.10
2022-10-03T09:50:31.399Z,2.97
2022-10-03T09:53:13.617Z,3.80
2022-10-03T09:55:52.898Z,3.28
2022-10-03T09:58:56.921Z,2.58
2022-10-03T10:01:32.267Z,2.75
2022-10-03T10:04:53.122Z,2.15
2022-10-03T10:07:42.135Z,1.98
2022-10-03T10:10:46.995Z,1.50
2022-10-03T10:14:07.347Z,2.30
2022-10-03T10:17:02.732Z,2.25
2022-10-03T10:19:43.635Z,2.45
2022-10-03T10:22:48.370Z,1.67
2022-10-03T10:25:23.153Z,2.83
2022-10-03T10:28:11.798Z,2.30
2022-10-03T10:31:00.186Z,2.80
2022-10-03T10:33:39.262Z,1.55
2022-10-03T10:36:34.167Z,2.35
2022-10-03T10:39:34.504Z,1.60
2022-10-03T10:42:04.457Z,1.88
2022-10-03T10:44:59.508Z,1.50
2022-10-03T10:47:29.622Z,1.80
2022-10-03T10:50:33.645Z,2.03
2022-10-03T10:53:09.649Z,1.65
2022-10-03T10:55:36.787Z,1.90
2022-10-03T10:58:18.769Z,2.03
2022-10-03T11:01:16.150Z,2.65
2022-10-03T11:04:19.103Z,2.08
2022-10-03T11:09:52.275Z,2.25
2022-10-03T11:12:58.877Z,2.42
2022-10-03T11:16:00.379Z,2.22
2022-10-03T11:18:30.595Z,1.92
2022-10-03T11:21:12.830Z,1.77
2022-10-03T11:23:57.837Z,1.75
2022-10-03T11:26:45.888Z,1.48
2022-10-03T11:29:28.122Z,1.50
2022-10-03T11:32:24.232Z,1.45
2022-10-03T11:35:10.022Z,1.20
2022-10-03T11:37:42.756Z,2.08
2022-10-03T11:40:38.127Z,2.17
2022-10-03T11:43:45.592Z,1.70
2022-10-03T11:46:46.138Z,1.63
2022-10-03T11:49:31.500Z,2.30
2022-10-03T11:52:34.172Z,1.77
2022-10-03T11:55:28.930Z,2.08
2022-10-03T11:58:24.185Z,2.15
2022-10-03T12:01:29.008Z,1.83
2022-10-03T12:04:18.003Z,2.13
2022-10-03T12:07:28.403Z,2.50
2022-10-03T12:10:13.521Z,1.75
2022-10-03T12:12:46.124Z,1.33
2022-10-03T12:15:35.017Z,1.85
2022-10-03T12:18:11.597Z,1.90
2022-10-03T12:20:53.723Z,2.85
2022-10-03T12:23:47.538Z,1.80
2022-10-03T12:26:22.337Z,2.47
2022-10-03T12:28:54.910Z,2.42
2022-10-03T12:31:26.527Z,2.20
2022-10-03T12:34:39.022Z,2.03
2022-10-03T12:37:34.969Z,2.17
2022-10-03T12:40:39.741Z,2.05
2022-10-03T12:43:18.725Z,2.13
2022-10-03T12:45:54.881Z,1.90
2022-10-03T12:49:11.264Z,2.10
2022-10-03T12:51:50.284Z,2.20
2022-10-03T12:54:41.709Z,1.80
2022-10-03T12:57:36.803Z,2.08
2022-10-03T13:00:07.558Z,2.33
2022-10-03T13:03:06.762Z,2.05
2022-10-03T13:05:53.611Z,1.95
2022-10-03T13:08:34.111Z,1.60
2022-10-03T13:11:20.656Z,1.40
2022-10-03T13:14:06.974Z,1.42
2022-10-03T13:16:43.754Z,1.60
2022-10-03T13:19:22.085Z,1.98
2022-10-03T13:22:26.992Z,1.55
2022-10-03T13:25:26.546Z,1.40
2022-10-03T13:28:08.617Z,2.28
2022-10-03T13:30:57.162Z,2.15
2022-10-03T13:33:28.188Z,1.73
2022-10-03T13:36:26.472Z,1.65
2022-10-03T13:39:14.849Z,1.23
2022-10-03T13:42:00.000Z,1.65
2022-10-03T13:44:40.804Z,2.10
2022-10-03T13:47:30.024Z,2.13
2022-10-03T13:50:04.908Z,2.00
2022-10-03T13:52:50.265Z,1.83
2022-10-03T13:55:28.386Z,1.90
2022-10-03T13:58:23.400Z,1.50
2022-10-03T14:01:13.818Z,1.60
2022-10-03T14:03:56.161Z,2.42
2022-10-03T14:06:54.148Z,1.73
2022-10-03T14:09:27.014Z,1.85
2022-10-03T14:12:15.125Z,2.33
2022-10-03T14:14:52.961Z,2.80
2022-10-03T14:17:44.679Z,1.92
2022-10-03T14:20:32.659Z,1.63
2022-10-03T14:23:26.105Z,1.90
2022-10-03T14:26:05.477Z,2.35
2022-10-03T14:28:38.418Z,2.65
2022-10-03T14:31:34.977Z,2.25
2022-10-03T14:34:20.334Z,2.33
2022-10-03T14:36:50.381Z,1.95
2022-10-03T14:39:22.298Z,1.50
2022-10-03T14:42:13.601Z,1.60
2022-10-03T14:44:44.673Z,1.95
2022-10-03T14:47:17.115Z,1.42
2022-10-03T14:49:59.246Z,2.05
2022-10-03T14:52:49.799Z,1.92
2022-10-03T14:55:21.204Z,1.73
2022-10-03T14:58:34.643Z,1.60
2022-10-03T15:01:20.132Z,2.47
2022-10-03T15:04:16.940Z,1.98
2022-10-03T15:06:47.693Z,2.00
2022-10-03T15:09:21.074Z,4.05
2022-10-03T15:11:50.632Z,2.40
2022-10-03T15:14:20.091Z,1.98
2022-10-03T15:16:58.389Z,1.60
2022-10-03T15:20:02.093Z,1.92
2022-10-03T15:22:47.103Z,1.90
2022-10-03T15:25:27.746Z,1.90
2022-10-03T15:27:58.870Z,2.00
2022-10-03T15:30:35.265Z,2.00
2022-10-03T15:33:24.745Z,1.90
2022-10-03T15:35:59.306Z,2.08
2022-10-03T15:38:35.645Z,1.77
2022-10-03T15:41:22.261Z,2.00
2022-10-03T15:44:06.861Z,1.88
2022-10-03T15:46:44.962Z,2.10
2022-10-03T15:49:31.650Z,1.80
2022-10-03T15:52:07.599Z,1.60
2022-10-03T15:54:38.829Z,2.13
2022-10-03T15:57:08.436Z,1.80
2022-10-03T15:59:37.113Z,2.35
2022-10-03T16:02:19.031Z,2.33
2022-10-03T16:04:47.072Z,1.92
2022-10-03T16:07:35.252Z,1.60
2022-10-03T16:10:24.937Z,1.67
2022-10-03T16:13:04.164Z,2.30
2022-10-03T16:15:50.224Z,1.35
2022-10-03T16:18:38.952Z,1.48
2022-10-03T16:21:07.505Z,1.77
2022-10-03T16:23:38.836Z,1.70
2022-10-03T16:26:08.784Z,1.98
2022-10-03T16:28:35.878Z,1.73
2022-10-03T16:31:27.211Z,1.45
2022-10-03T16:34:02.295Z,1.52
2022-10-03T16:36:33.073Z,1.83
2022-10-03T16:39:04.444Z,1.95
2022-10-03T16:41:40.882Z,1.75
2022-10-03T16:44:20.252Z,1.33
2022-10-03T16:46:48.297Z,2.13
2022-10-03T16:50:00.231Z,1.63
2022-10-03T16:52:37.554Z,1.60
2022-10-03T16:55:26.828Z,2.28
2022-10-03T16:58:09.154Z,2.00
2022-10-03T17:04:15.964Z,2.33
2022-10-03T17:06:48.466Z,2.20
2022-10-03T17:09:41.430Z,1.80
2022-10-03T17:12:25.403Z,1.83
2022-10-03T17:14:55.818Z,2.10
2022-10-03T17:17:37.927Z,1.45
2022-10-03T17:20:28.736Z,2.05
2022-10-03T17:23:02.372Z,2.05
2022-10-03T17:25:58.742Z,2.35
2022-10-03T17:28:39.971Z,2.22
2022-10-03T17:31:28.633Z,1.67
2022-10-03T17:34:04.251Z,2.00
2022-10-03T17:36:40.377Z,1.90
2022-10-03T17:39:32.295Z,1.33
2022-10-03T17:42:09.277Z,1.90
2022-10-03T17:45:00.352Z,1.80
2022-10-03T17:47:39.218Z,2.45
2022-10-03T17:50:15.919Z,3.25
2022-10-03T17:52:46.298Z,2.92
2022-10-03T17:55:31.801Z,3.55
2022-10-03T17:58:14.582Z,3.90
2022-10-03T18:00:44.820Z,4.35
2022-10-03T18:03:27.126Z,4.15
2022-10-03T18:05:59.390Z,2.55
2022-10-03T18:11:01.215Z,2.40
2022-10-03T18:13:39.077Z,3.97
2022-10-03T18:16:19.255Z,4.03
2022-10-03T18:19:21.907Z,2.90
2022-10-03T18:22:15.822Z,2.47
2022-10-03T18:24:58.139Z,2.80
2022-10-03T18:27:44.026Z,3.03
2022-10-03T18:30:14.448Z,2.35
2022-10-03T18:32:45.669Z,2.83
2022-10-03T18:35:16.175Z,3.38
2022-10-03T18:37:46.359Z,2.83
2022-10-03T18:40:20.902Z,3.15
2022-10-03T18:42:50.429Z,3.75
2022-10-03T18:45:29.868Z,3.50
2022-10-03T18:48:11.497Z,3.22
2022-10-03T18:50:59.578Z,4.20
2022-10-03T18:53:39.744Z,3.10
2022-10-03T18:56:12.631Z,3.80
2022-10-03T18:58:46.255Z,3.28
2022-10-03T19:01:39.964Z,4.25
2022-10-03T19:04:10.350Z,3.70
2022-10-03T19:06:41.669Z,3.67
2022-10-03T19:09:28.991Z,4.25
2022-10-03T19:12:04.517Z,3.90
2022-10-03T19:14:43.563Z,3.88
2022-10-03T19:17:45.713Z,3.88
2022-10-03T19:20:18.534Z,3.83
2022-10-03T19:23:19.580Z,4.30
2022-10-03T19:25:52.937Z,3.83
2022-10-03T19:28:35.386Z,4.05
2022-10-03T19:33:51.898Z,2.58
2022-10-03T19:36:26.116Z,3.90
2022-10-03T19:38:54.786Z,3.72
2022-10-03T19:41:40.638Z,3.45
2022-10-03T19:44:14.209Z,3.83
2022-10-03T19:46:51.684Z,4.75
2022-10-03T19:49:27.885Z,3.80
2022-10-03T19:52:12.045Z,3.70
2022-10-03T19:54:51.318Z,4.50
2022-10-03T19:57:34.358Z,3.80
2022-10-03T20:00:06.694Z,3.33
2022-10-03T20:02:39.331Z,3.67
2022-10-03T20:05:31.789Z,4.53
2022-10-03T20:08:14.104Z,4.50
2022-10-03T20:10:59.302Z,4.15
2022-10-03T20:13:26.655Z,4.35
2022-10-03T20:15:57.966Z,4.13
2022-10-03T20:18:34.168Z,4.97
2022-10-03T20:21:04.042Z,4.40
2022-10-03T20:23:33.548Z,3.90
2022-10-03T20:26:10.411Z,4.20
2022-10-03T20:29:02.863Z,4.10
2022-10-03T20:31:31.113Z,5.13
2022-10-03T20:34:01.698Z,4.20
2022-10-03T20:36:32.296Z,4.20
2022-10-03T20:39:20.421Z,4.30
2022-10-03T20:42:10.049Z,5.00
2022-10-03T20:44:49.489Z,4.60
2022-10-03T20:48:01.199Z,4.60
2022-10-03T20:50:35.666Z,4.72
2022-10-03T20:53:05.800Z,4.70
2022-10-03T20:55:39.709Z,5.00
2022-10-03T20:58:31.911Z,3.88
2022-10-03T21:01:10.243Z,5.50
2022-10-03T21:04:15.534Z,4.82
2022-10-03T21:06:57.985Z,4.53
2022-10-03T21:09:40.307Z,4.82
2022-10-03T21:12:20.701Z,5.55
2022-10-03T21:14:53.538Z,5.47
2022-10-03T21:17:21.723Z,5.28
2022-10-03T21:19:57.538Z,5.18
2022-10-03T21:22:28.557Z,4.70
2022-10-03T21:25:30.313Z,5.68
2022-10-03T21:27:58.078Z,4.95
2022-10-03T21:30:46.531Z,4.97
2022-10-03T21:33:20.987Z,4.63
2022-10-03T21:35:51.464Z,5.30
2022-10-03T21:38:31.848Z,5.35
2022-10-03T21:41:17.116Z,4.78
2022-10-03T21:44:00.935Z,5.43
2022-10-03T21:46:42.977Z,4.57
2022-10-03T21:49:25.065Z,5.53
2022-10-03T22:04:54.853Z,5.72
2022-10-03T22:07:35.357Z,5.55
2022-10-03T22:10:04.146Z,4.78
2022-10-03T22:12:41.744Z,4.97
2022-10-03T22:15:18.584Z,5.13
2022-10-03T22:17:59.455Z,5.30
2022-10-03T22:20:29.928Z,5.60
2022-10-03T22:23:16.476Z,5.97
2022-10-03T22:26:13.640Z,7.97
2022-10-03T22:28:46.649Z,5.18
2022-10-03T22:31:13.759Z,5.88
2022-10-03T22:33:47.558Z,5.88
2022-10-03T22:36:16.721Z,5.55
2022-10-03T22:38:45.982Z,6.03
2022-10-03T22:41:17.970Z,5.45
2022-10-03T22:43:47.131Z,6.03
2022-10-03T22:46:22.075Z,5.25
2022-10-03T22:48:52.859Z,5.78
2022-10-03T22:51:21.765Z,5.32
2022-10-03T22:53:54.094Z,6.25
2022-10-03T22:58:57.641Z,5.70
2022-10-03T23:01:25.814Z,5.05
2022-10-03T23:03:53.342Z,5.07
2022-10-03T23:07:06.358Z,5.25
2022-10-03T23:09:42.517Z,7.15
2022-10-03T23:12:11.414Z,6.07
2022-10-03T23:14:45.107Z,5.43
2022-10-03T23:17:24.116Z,5.93
2022-10-03T23:20:29.578Z,6.32
2022-10-03T23:23:00.857Z,4.90
2022-10-03T23:25:54.070Z,5.28
2022-10-03T23:28:31.585Z,5.93
2022-10-03T23:30:58.858Z,5.38
2022-10-03T23:33:32.644Z,4.82
2022-10-03T23:36:23.449Z,5.50
2022-10-03T23:38:50.474Z,5.10
2022-10-03T23:41:52.359Z,4.60
2022-10-03T23:44:55.853Z,6.03
2022-10-03T23:47:48.845Z,5.40
2022-10-03T23:50:22.155Z,4.97
2022-10-03T23:52:58.660Z,5.32
2022-10-03T23:55:29.248Z,4.47
2022-10-03T23:57:56.959Z,4.68
